sensor_id;sensor_type;location;lat;lon;timestamp;P1;durP1;ratioP1;P2;durP2;ratioP2
34783;SDS011;20998;51.388;7.032;2024-01-07T00:10:14;6.63;;;3.13;;
34783;SDS011;20998;51.388;7.032;2024-01-07T00:12:39;9.97;;;4.10;;
34783;SDS011;20998;51.388;7.032;2024-01-07T00:18:27;7.63;;;3.47;;
34783;SDS011;20998;51.388;7.032;2024-01-07T00:20:53;6.13;;;3.47;;
34783;SDS011;20998;51.388;7.032;2024-01-07T00:23:19;8.13;;;3.87;;
34783;SDS011;20998;51.388;7.032;2024-01-07T00:25:48;6.30;;;3.00;;
34783;SDS011;20998;51.388;7.032;2024-01-07T00:28:14;8.50;;;3.97;;
34783;SDS011;20998;51.388;7.032;2024-01-07T00:30:40;7.50;;;3.53;;
34783;SDS011;20998;51.388;7.032;2024-01-07T00:33:06;6.23;;;3.40;;
34783;SDS011;20998;51.388;7.032;2024-01-07T00:35:32;7.53;;;4.13;;
34783;SDS011;20998;51.388;7.032;2024-01-07T00:37:58;7.17;;;4.47;;
34783;SDS011;20998;51.388;7.032;2024-01-07T00:40:24;4.10;;;2.30;;
34783;SDS011;20998;51.388;7.032;2024-01-07T00:42:50;5.87;;;3.57;;
34783;SDS011;20998;51.388;7.032;2024-01-07T00:55:23;5.10;;;3.47;;
34783;SDS011;20998;51.388;7.032;2024-01-07T00:57:49;7.73;;;3.97;;
34783;SDS011;20998;51.388;7.032;2024-01-07T01:00:15;7.27;;;3.73;;
34783;SDS011;20998;51.388;7.032;2024-01-07T01:06:13;7.30;;;3.63;;
34783;SDS011;20998;51.388;7.032;2024-01-07T01:08:39;7.43;;;2.83;;
34783;SDS011;20998;51.388;7.032;2024-01-07T01:11:05;7.67;;;3.17;;
34783;SDS011;20998;51.388;7.032;2024-01-07T01:13:31;6.33;;;3.10;;
34783;SDS011;20998;51.388;7.032;2024-01-07T01:15:57;7.53;;;3.33;;
34783;SDS011;20998;51.388;7.032;2024-01-07T01:28:38;7.20;;;4.23;;
34783;SDS011;20998;51.388;7.032;2024-01-07T01:31:03;5.70;;;3.10;;
34783;SDS011;20998;51.388;7.032;2024-01-07T01:37:01;5.80;;;4.20;;
34783;SDS011;20998;51.388;7.032;2024-01-07T01:39:28;7.70;;;4.10;;
34783;SDS011;20998;51.388;7.032;2024-01-07T01:41:54;8.00;;;4.57;;
34783;SDS011;20998;51.388;7.032;2024-01-07T01:44:20;3.30;;;3.00;;
34783;SDS011;20998;51.388;7.032;2024-01-07T01:46:46;6.90;;;3.63;;
34783;SDS011;20998;51.388;7.032;2024-01-07T01:49:13;4.47;;;2.93;;
34783;SDS011;20998;51.388;7.032;2024-01-07T01:51:39;7.33;;;4.17;;
34783;SDS011;20998;51.388;7.032;2024-01-07T01:54:05;9.23;;;5.03;;
34783;SDS011;20998;51.388;7.032;2024-01-07T01:56:31;7.80;;;4.50;;
34783;SDS011;20998;51.388;7.032;2024-01-07T01:58:59;11.67;;;4.87;;
34783;SDS011;20998;51.388;7.032;2024-01-07T02:01:25;3.70;;;2.70;;
34783;SDS011;20998;51.388;7.032;2024-01-07T02:03:51;9.10;;;5.23;;
34783;SDS011;20998;51.388;7.032;2024-01-07T02:06:18;5.67;;;3.97;;
34783;SDS011;20998;51.388;7.032;2024-01-07T02:08:45;5.57;;;3.73;;
34783;SDS011;20998;51.388;7.032;2024-01-07T02:11:18;5.83;;;3.87;;
34783;SDS011;20998;51.388;7.032;2024-01-07T02:13:44;12.80;;;5.53;;
34783;SDS011;20998;51.388;7.032;2024-01-07T02:16:11;5.77;;;4.17;;
34783;SDS011;20998;51.388;7.032;2024-01-07T02:18:46;9.10;;;4.57;;
34783;SDS011;20998;51.388;7.032;2024-01-07T02:21:14;6.27;;;3.93;;
34783;SDS011;20998;51.388;7.032;2024-01-07T02:23:40;8.90;;;4.57;;
34783;SDS011;20998;51.388;7.032;2024-01-07T02:26:06;8.93;;;4.10;;
34783;SDS011;20998;51.388;7.032;2024-01-07T02:28:32;8.80;;;4.20;;
34783;SDS011;20998;51.388;7.032;2024-01-07T02:30:58;5.33;;;3.20;;
34783;SDS011;20998;51.388;7.032;2024-01-07T02:33:24;8.07;;;4.53;;
34783;SDS011;20998;51.388;7.032;2024-01-07T02:35:51;10.10;;;4.93;;
34783;SDS011;20998;51.388;7.032;2024-01-07T02:38:17;5.73;;;3.53;;
34783;SDS011;20998;51.388;7.032;2024-01-07T02:40:43;8.60;;;4.33;;
34783;SDS011;20998;51.388;7.032;2024-01-07T02:43:09;6.20;;;3.03;;
34783;SDS011;20998;51.388;7.032;2024-01-07T02:45:35;6.80;;;4.20;;
34783;SDS011;20998;51.388;7.032;2024-01-07T02:48:01;11.77;;;4.07;;
34783;SDS011;20998;51.388;7.032;2024-01-07T02:50:27;7.10;;;3.73;;
34783;SDS011;20998;51.388;7.032;2024-01-07T02:52:53;9.30;;;4.33;;
34783;SDS011;20998;51.388;7.032;2024-01-07T02:55:19;16.83;;;4.73;;
34783;SDS011;20998;51.388;7.032;2024-01-07T02:57:45;12.13;;;4.03;;
34783;SDS011;20998;51.388;7.032;2024-01-07T03:00:11;6.63;;;2.70;;
34783;SDS011;20998;51.388;7.032;2024-01-07T03:02:37;4.87;;;3.17;;
34783;SDS011;20998;51.388;7.032;2024-01-07T03:05:03;6.43;;;4.03;;
34783;SDS011;20998;51.388;7.032;2024-01-07T03:07:29;8.60;;;4.03;;
34783;SDS011;20998;51.388;7.032;2024-01-07T03:09:55;4.63;;;3.67;;
34783;SDS011;20998;51.388;7.032;2024-01-07T03:12:21;12.37;;;4.13;;
34783;SDS011;20998;51.388;7.032;2024-01-07T03:14:47;9.77;;;4.10;;
34783;SDS011;20998;51.388;7.032;2024-01-07T03:17:13;5.30;;;3.53;;
34783;SDS011;20998;51.388;7.032;2024-01-07T03:19:42;11.20;;;4.50;;
34783;SDS011;20998;51.388;7.032;2024-01-07T03:22:08;6.73;;;4.30;;
34783;SDS011;20998;51.388;7.032;2024-01-07T03:24:33;7.90;;;3.67;;
34783;SDS011;20998;51.388;7.032;2024-01-07T03:26:59;15.50;;;5.17;;
34783;SDS011;20998;51.388;7.032;2024-01-07T03:29:25;8.10;;;4.77;;
34783;SDS011;20998;51.388;7.032;2024-01-07T03:31:51;8.87;;;4.37;;
34783;SDS011;20998;51.388;7.032;2024-01-07T03:34:18;6.63;;;3.87;;
34783;SDS011;20998;51.388;7.032;2024-01-07T03:36:44;7.40;;;4.57;;
34783;SDS011;20998;51.388;7.032;2024-01-07T03:39:10;9.40;;;5.13;;
34783;SDS011;20998;51.388;7.032;2024-01-07T03:41:36;10.33;;;4.70;;
34783;SDS011;20998;51.388;7.032;2024-01-07T03:44:02;7.47;;;4.27;;
34783;SDS011;20998;51.388;7.032;2024-01-07T03:46:28;8.53;;;5.10;;
34783;SDS011;20998;51.388;7.032;2024-01-07T03:48:53;5.00;;;3.00;;
34783;SDS011;20998;51.388;7.032;2024-01-07T03:51:19;10.33;;;5.37;;
34783;SDS011;20998;51.388;7.032;2024-01-07T03:53:45;10.37;;;5.43;;
34783;SDS011;20998;51.388;7.032;2024-01-07T03:56:11;6.67;;;3.47;;
34783;SDS011;20998;51.388;7.032;2024-01-07T03:58:37;12.57;;;5.67;;
34783;SDS011;20998;51.388;7.032;2024-01-07T04:01:03;9.67;;;3.47;;
34783;SDS011;20998;51.388;7.032;2024-01-07T04:03:29;7.43;;;4.60;;
34783;SDS011;20998;51.388;7.032;2024-01-07T04:05:55;17.93;;;6.03;;
34783;SDS011;20998;51.388;7.032;2024-01-07T04:08:21;6.07;;;3.90;;
34783;SDS011;20998;51.388;7.032;2024-01-07T04:10:48;8.83;;;5.77;;
34783;SDS011;20998;51.388;7.032;2024-01-07T04:13:14;9.70;;;4.43;;
34783;SDS011;20998;51.388;7.032;2024-01-07T04:15:40;6.67;;;4.00;;
34783;SDS011;20998;51.388;7.032;2024-01-07T04:18:06;8.23;;;3.83;;
34783;SDS011;20998;51.388;7.032;2024-01-07T04:20:32;11.13;;;5.47;;
34783;SDS011;20998;51.388;7.032;2024-01-07T04:22:58;12.30;;;4.77;;
34783;SDS011;20998;51.388;7.032;2024-01-07T04:25:24;7.90;;;4.67;;
34783;SDS011;20998;51.388;7.032;2024-01-07T04:27:50;8.53;;;3.67;;
34783;SDS011;20998;51.388;7.032;2024-01-07T04:30:16;4.73;;;3.43;;
34783;SDS011;20998;51.388;7.032;2024-01-07T04:32:42;15.23;;;4.33;;
34783;SDS011;20998;51.388;7.032;2024-01-07T04:35:08;7.33;;;3.97;;
34783;SDS011;20998;51.388;7.032;2024-01-07T04:37:34;6.53;;;3.90;;
34783;SDS011;20998;51.388;7.032;2024-01-07T04:40:00;6.77;;;3.43;;
34783;SDS011;20998;51.388;7.032;2024-01-07T04:42:27;6.83;;;4.00;;
34783;SDS011;20998;51.388;7.032;2024-01-07T04:44:53;11.07;;;4.27;;
34783;SDS011;20998;51.388;7.032;2024-01-07T04:47:29;9.47;;;4.57;;
34783;SDS011;20998;51.388;7.032;2024-01-07T04:49:56;6.20;;;3.37;;
34783;SDS011;20998;51.388;7.032;2024-01-07T04:52:22;6.27;;;3.17;;
34783;SDS011;20998;51.388;7.032;2024-01-07T04:54:50;4.83;;;2.93;;
34783;SDS011;20998;51.388;7.032;2024-01-07T04:57:16;6.07;;;3.00;;
34783;SDS011;20998;51.388;7.032;2024-01-07T04:59:42;10.00;;;5.10;;
34783;SDS011;20998;51.388;7.032;2024-01-07T05:02:08;6.77;;;3.93;;
34783;SDS011;20998;51.388;7.032;2024-01-07T05:04:35;5.10;;;3.40;;
34783;SDS011;20998;51.388;7.032;2024-01-07T05:07:01;7.17;;;4.07;;
34783;SDS011;20998;51.388;7.032;2024-01-07T05:09:27;8.70;;;4.07;;
34783;SDS011;20998;51.388;7.032;2024-01-07T05:11:53;7.57;;;3.40;;
34783;SDS011;20998;51.388;7.032;2024-01-07T05:14:19;8.23;;;4.97;;
34783;SDS011;20998;51.388;7.032;2024-01-07T05:16:45;10.67;;;5.00;;
34783;SDS011;20998;51.388;7.032;2024-01-07T05:19:11;9.93;;;4.97;;
34783;SDS011;20998;51.388;7.032;2024-01-07T05:21:37;12.13;;;4.20;;
34783;SDS011;20998;51.388;7.032;2024-01-07T05:24:03;6.80;;;4.23;;
34783;SDS011;20998;51.388;7.032;2024-01-07T05:26:29;10.73;;;4.97;;
34783;SDS011;20998;51.388;7.032;2024-01-07T05:28:55;7.43;;;4.20;;
34783;SDS011;20998;51.388;7.032;2024-01-07T05:31:21;17.83;;;6.63;;
34783;SDS011;20998;51.388;7.032;2024-01-07T05:33:48;8.40;;;3.83;;
34783;SDS011;20998;51.388;7.032;2024-01-07T05:36:14;8.10;;;4.60;;
34783;SDS011;20998;51.388;7.032;2024-01-07T05:38:43;9.00;;;3.97;;
34783;SDS011;20998;51.388;7.032;2024-01-07T05:41:08;8.37;;;5.67;;
34783;SDS011;20998;51.388;7.032;2024-01-07T05:43:35;5.43;;;3.30;;
34783;SDS011;20998;51.388;7.032;2024-01-07T05:46:01;7.30;;;3.80;;
34783;SDS011;20998;51.388;7.032;2024-01-07T05:48:28;8.23;;;4.30;;
34783;SDS011;20998;51.388;7.032;2024-01-07T05:50:54;10.17;;;5.13;;
34783;SDS011;20998;51.388;7.032;2024-01-07T05:53:20;9.70;;;4.30;;
34783;SDS011;20998;51.388;7.032;2024-01-07T05:55:46;11.97;;;6.17;;
34783;SDS011;20998;51.388;7.032;2024-01-07T05:58:12;8.90;;;4.33;;
34783;SDS011;20998;51.388;7.032;2024-01-07T06:00:38;8.13;;;4.97;;
34783;SDS011;20998;51.388;7.032;2024-01-07T06:03:04;5.73;;;2.97;;
34783;SDS011;20998;51.388;7.032;2024-01-07T06:05:31;10.97;;;5.27;;
34783;SDS011;20998;51.388;7.032;2024-01-07T06:07:57;12.20;;;4.37;;
34783;SDS011;20998;51.388;7.032;2024-01-07T06:10:23;5.00;;;3.43;;
34783;SDS011;20998;51.388;7.032;2024-01-07T06:12:49;14.30;;;5.70;;
34783;SDS011;20998;51.388;7.032;2024-01-07T06:15:15;6.47;;;3.87;;
34783;SDS011;20998;51.388;7.032;2024-01-07T06:17:41;10.37;;;4.60;;
34783;SDS011;20998;51.388;7.032;2024-01-07T06:20:07;6.67;;;4.43;;
34783;SDS011;20998;51.388;7.032;2024-01-07T06:22:33;11.40;;;5.03;;
34783;SDS011;20998;51.388;7.032;2024-01-07T06:24:59;8.03;;;5.27;;
34783;SDS011;20998;51.388;7.032;2024-01-07T06:27:25;9.80;;;4.90;;
34783;SDS011;20998;51.388;7.032;2024-01-07T06:29:51;10.40;;;5.57;;
34783;SDS011;20998;51.388;7.032;2024-01-07T06:32:17;9.30;;;5.63;;
34783;SDS011;20998;51.388;7.032;2024-01-07T06:34:43;7.47;;;3.90;;
34783;SDS011;20998;51.388;7.032;2024-01-07T06:37:09;12.77;;;6.03;;
34783;SDS011;20998;51.388;7.032;2024-01-07T06:39:35;8.03;;;4.43;;
34783;SDS011;20998;51.388;7.032;2024-01-07T06:42:01;19.07;;;4.67;;
34783;SDS011;20998;51.388;7.032;2024-01-07T06:44:27;13.10;;;4.93;;
34783;SDS011;20998;51.388;7.032;2024-01-07T06:46:53;7.07;;;4.33;;
34783;SDS011;20998;51.388;7.032;2024-01-07T06:49:19;13.00;;;4.57;;
34783;SDS011;20998;51.388;7.032;2024-01-07T06:51:45;9.00;;;5.13;;
34783;SDS011;20998;51.388;7.032;2024-01-07T06:54:11;9.20;;;4.63;;
34783;SDS011;20998;51.388;7.032;2024-01-07T06:56:37;7.67;;;4.93;;
34783;SDS011;20998;51.388;7.032;2024-01-07T06:59:02;12.70;;;6.03;;
34783;SDS011;20998;51.388;7.032;2024-01-07T07:01:29;9.33;;;4.47;;
34783;SDS011;20998;51.388;7.032;2024-01-07T07:03:55;11.47;;;5.43;;
34783;SDS011;20998;51.388;7.032;2024-01-07T07:06:20;9.57;;;5.97;;
34783;SDS011;20998;51.388;7.032;2024-01-07T07:08:46;8.00;;;4.63;;
34783;SDS011;20998;51.388;7.032;2024-01-07T07:11:12;12.73;;;4.60;;
34783;SDS011;20998;51.388;7.032;2024-01-07T07:13:38;10.37;;;4.73;;
34783;SDS011;20998;51.388;7.032;2024-01-07T07:16:04;8.50;;;5.27;;
34783;SDS011;20998;51.388;7.032;2024-01-07T07:18:30;9.10;;;5.17;;
34783;SDS011;20998;51.388;7.032;2024-01-07T07:20:56;10.10;;;5.47;;
34783;SDS011;20998;51.388;7.032;2024-01-07T07:23:22;16.10;;;6.23;;
34783;SDS011;20998;51.388;7.032;2024-01-07T07:25:48;10.40;;;5.90;;
34783;SDS011;20998;51.388;7.032;2024-01-07T07:28:14;17.83;;;6.07;;
34783;SDS011;20998;51.388;7.032;2024-01-07T07:30:42;8.83;;;4.03;;
34783;SDS011;20998;51.388;7.032;2024-01-07T07:33:08;13.13;;;6.17;;
34783;SDS011;20998;51.388;7.032;2024-01-07T07:35:34;7.33;;;4.50;;
34783;SDS011;20998;51.388;7.032;2024-01-07T07:38:00;9.10;;;6.03;;
34783;SDS011;20998;51.388;7.032;2024-01-07T07:40:26;6.60;;;4.43;;
34783;SDS011;20998;51.388;7.032;2024-01-07T07:42:52;11.77;;;5.17;;
34783;SDS011;20998;51.388;7.032;2024-01-07T07:45:18;14.87;;;5.23;;
34783;SDS011;20998;51.388;7.032;2024-01-07T07:47:44;9.73;;;5.60;;
34783;SDS011;20998;51.388;7.032;2024-01-07T07:50:10;11.80;;;4.87;;
34783;SDS011;20998;51.388;7.032;2024-01-07T07:52:36;13.43;;;5.27;;
34783;SDS011;20998;51.388;7.032;2024-01-07T07:55:02;9.20;;;4.87;;
34783;SDS011;20998;51.388;7.032;2024-01-07T07:57:28;8.93;;;3.97;;
34783;SDS011;20998;51.388;7.032;2024-01-07T07:59:54;7.10;;;3.50;;
34783;SDS011;20998;51.388;7.032;2024-01-07T08:02:20;6.00;;;3.23;;
34783;SDS011;20998;51.388;7.032;2024-01-07T08:04:47;7.40;;;3.93;;
34783;SDS011;20998;51.388;7.032;2024-01-07T08:07:12;7.33;;;4.43;;
34783;SDS011;20998;51.388;7.032;2024-01-07T08:09:38;7.57;;;3.60;;
34783;SDS011;20998;51.388;7.032;2024-01-07T08:12:04;5.67;;;3.83;;
34783;SDS011;20998;51.388;7.032;2024-01-07T08:14:31;5.43;;;3.47;;
34783;SDS011;20998;51.388;7.032;2024-01-07T08:16:57;9.20;;;4.70;;
34783;SDS011;20998;51.388;7.032;2024-01-07T08:19:23;5.30;;;3.40;;
34783;SDS011;20998;51.388;7.032;2024-01-07T08:21:49;7.00;;;4.03;;
34783;SDS011;20998;51.388;7.032;2024-01-07T08:24:15;9.80;;;4.73;;
34783;SDS011;20998;51.388;7.032;2024-01-07T08:26:41;9.80;;;4.77;;
34783;SDS011;20998;51.388;7.032;2024-01-07T08:29:07;6.53;;;3.50;;
34783;SDS011;20998;51.388;7.032;2024-01-07T08:31:33;9.60;;;6.03;;
34783;SDS011;20998;51.388;7.032;2024-01-07T08:33:59;4.50;;;3.60;;
34783;SDS011;20998;51.388;7.032;2024-01-07T08:36:25;7.47;;;3.90;;
34783;SDS011;20998;51.388;7.032;2024-01-07T08:38:51;7.10;;;3.30;;
34783;SDS011;20998;51.388;7.032;2024-01-07T08:41:17;6.73;;;3.83;;
34783;SDS011;20998;51.388;7.032;2024-01-07T08:43:43;6.33;;;3.10;;
34783;SDS011;20998;51.388;7.032;2024-01-07T08:46:10;8.60;;;5.03;;
34783;SDS011;20998;51.388;7.032;2024-01-07T08:48:36;6.83;;;3.83;;
34783;SDS011;20998;51.388;7.032;2024-01-07T08:51:02;8.67;;;3.97;;
34783;SDS011;20998;51.388;7.032;2024-01-07T08:53:28;8.27;;;4.40;;
34783;SDS011;20998;51.388;7.032;2024-01-07T08:55:54;10.80;;;3.97;;
34783;SDS011;20998;51.388;7.032;2024-01-07T08:58:20;6.60;;;3.33;;
34783;SDS011;20998;51.388;7.032;2024-01-07T09:00:46;7.03;;;3.90;;
34783;SDS011;20998;51.388;7.032;2024-01-07T09:03:12;13.47;;;5.53;;
34783;SDS011;20998;51.388;7.032;2024-01-07T09:05:38;7.17;;;3.47;;
34783;SDS011;20998;51.388;7.032;2024-01-07T09:08:04;7.13;;;3.93;;
34783;SDS011;20998;51.388;7.032;2024-01-07T09:10:31;11.47;;;6.30;;
34783;SDS011;20998;51.388;7.032;2024-01-07T09:12:58;7.13;;;3.97;;
34783;SDS011;20998;51.388;7.032;2024-01-07T09:15:25;8.73;;;5.00;;
34783;SDS011;20998;51.388;7.032;2024-01-07T09:17:50;8.77;;;4.67;;
34783;SDS011;20998;51.388;7.032;2024-01-07T09:20:16;9.50;;;4.83;;
34783;SDS011;20998;51.388;7.032;2024-01-07T09:22:42;11.53;;;5.30;;
34783;SDS011;20998;51.388;7.032;2024-01-07T09:25:09;9.20;;;4.83;;
34783;SDS011;20998;51.388;7.032;2024-01-07T09:27:35;6.43;;;3.80;;
34783;SDS011;20998;51.388;7.032;2024-01-07T09:30:01;10.23;;;5.70;;
34783;SDS011;20998;51.388;7.032;2024-01-07T09:32:27;7.50;;;3.93;;
34783;SDS011;20998;51.388;7.032;2024-01-07T09:34:53;7.50;;;3.40;;
34783;SDS011;20998;51.388;7.032;2024-01-07T09:37:19;6.83;;;3.77;;
34783;SDS011;20998;51.388;7.032;2024-01-07T09:39:45;7.50;;;3.83;;
34783;SDS011;20998;51.388;7.032;2024-01-07T09:42:15;8.17;;;4.10;;
34783;SDS011;20998;51.388;7.032;2024-01-07T09:44:43;7.63;;;4.77;;
34783;SDS011;20998;51.388;7.032;2024-01-07T09:47:13;6.27;;;3.67;;
34783;SDS011;20998;51.388;7.032;2024-01-07T09:49:40;8.20;;;4.83;;
34783;SDS011;20998;51.388;7.032;2024-01-07T09:52:07;7.07;;;3.73;;
34783;SDS011;20998;51.388;7.032;2024-01-07T09:54:35;5.53;;;3.37;;
34783;SDS011;20998;51.388;7.032;2024-01-07T09:57:03;9.20;;;3.73;;
34783;SDS011;20998;51.388;7.032;2024-01-07T09:59:33;7.33;;;3.83;;
34783;SDS011;20998;51.388;7.032;2024-01-07T10:01:59;7.47;;;4.20;;
34783;SDS011;20998;51.388;7.032;2024-01-07T10:04:25;8.93;;;3.80;;
34783;SDS011;20998;51.388;7.032;2024-01-07T10:06:52;6.67;;;3.67;;
34783;SDS011;20998;51.388;7.032;2024-01-07T10:09:19;3.93;;;2.87;;
34783;SDS011;20998;51.388;7.032;2024-01-07T10:11:48;6.33;;;4.03;;
34783;SDS011;20998;51.388;7.032;2024-01-07T10:14:14;7.00;;;3.13;;
34783;SDS011;20998;51.388;7.032;2024-01-07T10:16:40;13.03;;;3.37;;
34783;SDS011;20998;51.388;7.032;2024-01-07T10:19:07;4.47;;;3.57;;
34783;SDS011;20998;51.388;7.032;2024-01-07T10:21:32;5.37;;;2.73;;
34783;SDS011;20998;51.388;7.032;2024-01-07T10:24:11;6.67;;;3.70;;
34783;SDS011;20998;51.388;7.032;2024-01-07T10:26:38;6.37;;;3.80;;
34783;SDS011;20998;51.388;7.032;2024-01-07T10:29:04;8.97;;;3.63;;
34783;SDS011;20998;51.388;7.032;2024-01-07T10:31:33;4.10;;;3.00;;
34783;SDS011;20998;51.388;7.032;2024-01-07T10:33:59;7.30;;;3.17;;
34783;SDS011;20998;51.388;7.032;2024-01-07T10:36:25;5.60;;;2.43;;
34783;SDS011;20998;51.388;7.032;2024-01-07T10:38:51;5.20;;;2.47;;
34783;SDS011;20998;51.388;7.032;2024-01-07T10:41:18;3.30;;;2.80;;
34783;SDS011;20998;51.388;7.032;2024-01-07T10:43:46;4.17;;;2.50;;
34783;SDS011;20998;51.388;7.032;2024-01-07T10:46:12;9.00;;;3.40;;
34783;SDS011;20998;51.388;7.032;2024-01-07T10:48:39;7.67;;;3.17;;
34783;SDS011;20998;51.388;7.032;2024-01-07T10:51:15;4.37;;;3.57;;
34783;SDS011;20998;51.388;7.032;2024-01-07T10:53:42;14.60;;;3.17;;
34783;SDS011;20998;51.388;7.032;2024-01-07T10:56:11;8.17;;;3.63;;
34783;SDS011;20998;51.388;7.032;2024-01-07T10:58:37;4.63;;;3.43;;
34783;SDS011;20998;51.388;7.032;2024-01-07T11:01:05;6.57;;;3.03;;
34783;SDS011;20998;51.388;7.032;2024-01-07T11:05:59;9.43;;;3.37;;
34783;SDS011;20998;51.388;7.032;2024-01-07T11:08:34;4.00;;;2.20;;
34783;SDS011;20998;51.388;7.032;2024-01-07T11:11:21;6.53;;;2.57;;
34783;SDS011;20998;51.388;7.032;2024-01-07T11:13:56;5.63;;;3.10;;
34783;SDS011;20998;51.388;7.032;2024-01-07T11:16:40;3.30;;;2.67;;
34783;SDS011;20998;51.388;7.032;2024-01-07T11:19:07;6.60;;;3.47;;
34783;SDS011;20998;51.388;7.032;2024-01-07T11:21:32;5.13;;;2.90;;
34783;SDS011;20998;51.388;7.032;2024-01-07T11:23:58;2.70;;;1.97;;
34783;SDS011;20998;51.388;7.032;2024-01-07T11:26:28;5.47;;;2.70;;
34783;SDS011;20998;51.388;7.032;2024-01-07T11:28:55;6.57;;;2.93;;
34783;SDS011;20998;51.388;7.032;2024-01-07T11:34:06;4.70;;;2.43;;
34783;SDS011;20998;51.388;7.032;2024-01-07T11:36:32;7.70;;;3.23;;
34783;SDS011;20998;51.388;7.032;2024-01-07T11:39:03;4.80;;;2.77;;
34783;SDS011;20998;51.388;7.032;2024-01-07T11:41:33;5.43;;;2.77;;
34783;SDS011;20998;51.388;7.032;2024-01-07T11:43:59;3.17;;;1.57;;
34783;SDS011;20998;51.388;7.032;2024-01-07T11:46:26;5.97;;;2.83;;
34783;SDS011;20998;51.388;7.032;2024-01-07T11:48:53;3.50;;;2.20;;
34783;SDS011;20998;51.388;7.032;2024-01-07T11:51:26;2.37;;;2.03;;
34783;SDS011;20998;51.388;7.032;2024-01-07T11:53:56;1.73;;;1.57;;
34783;SDS011;20998;51.388;7.032;2024-01-07T11:56:22;3.30;;;2.30;;
34783;SDS011;20998;51.388;7.032;2024-01-07T11:58:49;2.73;;;2.00;;
34783;SDS011;20998;51.388;7.032;2024-01-07T12:01:15;4.73;;;2.93;;
34783;SDS011;20998;51.388;7.032;2024-01-07T12:03:43;2.90;;;1.80;;
34783;SDS011;20998;51.388;7.032;2024-01-07T12:06:12;2.17;;;1.53;;
34783;SDS011;20998;51.388;7.032;2024-01-07T12:08:41;5.37;;;2.00;;
34783;SDS011;20998;51.388;7.032;2024-01-07T12:11:07;2.33;;;1.63;;
34783;SDS011;20998;51.388;7.032;2024-01-07T12:13:34;5.67;;;2.47;;
34783;SDS011;20998;51.388;7.032;2024-01-07T12:16:00;2.43;;;1.33;;
34783;SDS011;20998;51.388;7.032;2024-01-07T12:18:26;1.30;;;1.20;;
34783;SDS011;20998;51.388;7.032;2024-01-07T12:20:55;2.70;;;1.63;;
34783;SDS011;20998;51.388;7.032;2024-01-07T12:23:22;4.20;;;3.13;;
34783;SDS011;20998;51.388;7.032;2024-01-07T12:25:48;2.03;;;1.43;;
34783;SDS011;20998;51.388;7.032;2024-01-07T12:28:16;5.90;;;2.23;;
34783;SDS011;20998;51.388;7.032;2024-01-07T12:30:49;1.53;;;1.23;;
34783;SDS011;20998;51.388;7.032;2024-01-07T12:33:15;3.37;;;2.07;;
34783;SDS011;20998;51.388;7.032;2024-01-07T12:35:45;1.43;;;1.17;;
34783;SDS011;20998;51.388;7.032;2024-01-07T12:38:11;2.77;;;1.43;;
34783;SDS011;20998;51.388;7.032;2024-01-07T12:40:37;2.07;;;1.60;;
34783;SDS011;20998;51.388;7.032;2024-01-07T12:43:04;2.57;;;1.57;;
34783;SDS011;20998;51.388;7.032;2024-01-07T12:45:31;6.10;;;2.07;;
34783;SDS011;20998;51.388;7.032;2024-01-07T12:47:58;3.00;;;1.93;;
34783;SDS011;20998;51.388;7.032;2024-01-07T12:50:27;8.70;;;1.43;;
34783;SDS011;20998;51.388;7.032;2024-01-07T12:52:54;5.27;;;2.30;;
34783;SDS011;20998;51.388;7.032;2024-01-07T12:55:20;2.13;;;1.53;;
34783;SDS011;20998;51.388;7.032;2024-01-07T12:57:46;3.80;;;1.63;;
34783;SDS011;20998;51.388;7.032;2024-01-07T13:00:12;1.80;;;1.23;;
34783;SDS011;20998;51.388;7.032;2024-01-07T13:02:38;1.53;;;1.20;;
34783;SDS011;20998;51.388;7.032;2024-01-07T13:05:05;1.07;;;0.87;;
34783;SDS011;20998;51.388;7.032;2024-01-07T13:07:31;2.77;;;1.60;;
34783;SDS011;20998;51.388;7.032;2024-01-07T13:09:57;2.73;;;1.50;;
34783;SDS011;20998;51.388;7.032;2024-01-07T13:12:23;1.97;;;1.27;;
34783;SDS011;20998;51.388;7.032;2024-01-07T13:14:49;1.70;;;1.37;;
34783;SDS011;20998;51.388;7.032;2024-01-07T13:17:15;1.93;;;1.30;;
34783;SDS011;20998;51.388;7.032;2024-01-07T13:19:41;1.67;;;1.30;;
34783;SDS011;20998;51.388;7.032;2024-01-07T13:22:07;2.37;;;0.97;;
34783;SDS011;20998;51.388;7.032;2024-01-07T13:24:34;2.53;;;1.93;;
34783;SDS011;20998;51.388;7.032;2024-01-07T13:27:00;2.33;;;1.20;;
34783;SDS011;20998;51.388;7.032;2024-01-07T13:29:26;1.37;;;1.27;;
34783;SDS011;20998;51.388;7.032;2024-01-07T13:31:52;1.60;;;1.23;;
34783;SDS011;20998;51.388;7.032;2024-01-07T13:34:18;2.30;;;1.23;;
34783;SDS011;20998;51.388;7.032;2024-01-07T13:36:44;1.60;;;1.37;;
34783;SDS011;20998;51.388;7.032;2024-01-07T13:39:11;1.60;;;1.23;;
34783;SDS011;20998;51.388;7.032;2024-01-07T13:41:37;3.33;;;1.33;;
34783;SDS011;20998;51.388;7.032;2024-01-07T13:44:04;1.87;;;1.17;;
34783;SDS011;20998;51.388;7.032;2024-01-07T13:46:29;1.33;;;1.03;;
34783;SDS011;20998;51.388;7.032;2024-01-07T13:48:55;1.77;;;1.20;;
34783;SDS011;20998;51.388;7.032;2024-01-07T13:51:21;3.90;;;1.97;;
34783;SDS011;20998;51.388;7.032;2024-01-07T13:53:47;3.37;;;1.83;;
34783;SDS011;20998;51.388;7.032;2024-01-07T13:56:13;6.33;;;1.70;;
34783;SDS011;20998;51.388;7.032;2024-01-07T13:58:39;3.23;;;1.30;;
34783;SDS011;20998;51.388;7.032;2024-01-07T14:01:05;1.47;;;1.33;;
34783;SDS011;20998;51.388;7.032;2024-01-07T14:03:31;1.33;;;0.90;;
34783;SDS011;20998;51.388;7.032;2024-01-07T14:06:00;2.03;;;1.33;;
34783;SDS011;20998;51.388;7.032;2024-01-07T14:08:26;1.10;;;0.97;;
34783;SDS011;20998;51.388;7.032;2024-01-07T14:10:52;1.53;;;1.03;;
34783;SDS011;20998;51.388;7.032;2024-01-07T14:13:18;1.67;;;1.00;;
34783;SDS011;20998;51.388;7.032;2024-01-07T14:15:44;1.53;;;1.30;;
34783;SDS011;20998;51.388;7.032;2024-01-07T14:18:10;0.90;;;0.73;;
34783;SDS011;20998;51.388;7.032;2024-01-07T14:20:40;2.97;;;1.30;;
34783;SDS011;20998;51.388;7.032;2024-01-07T14:23:07;1.47;;;1.23;;
34783;SDS011;20998;51.388;7.032;2024-01-07T14:25:33;1.10;;;0.93;;
34783;SDS011;20998;51.388;7.032;2024-01-07T14:27:59;1.03;;;0.90;;
34783;SDS011;20998;51.388;7.032;2024-01-07T14:30:25;2.27;;;1.33;;
34783;SDS011;20998;51.388;7.032;2024-01-07T14:32:51;2.80;;;2.07;;
34783;SDS011;20998;51.388;7.032;2024-01-07T14:35:17;2.07;;;1.33;;
34783;SDS011;20998;51.388;7.032;2024-01-07T14:37:42;1.63;;;1.03;;
34783;SDS011;20998;51.388;7.032;2024-01-07T14:40:09;1.00;;;0.90;;
34783;SDS011;20998;51.388;7.032;2024-01-07T14:42:35;1.03;;;0.70;;
34783;SDS011;20998;51.388;7.032;2024-01-07T14:45:01;1.40;;;1.07;;
34783;SDS011;20998;51.388;7.032;2024-01-07T14:47:29;1.10;;;0.70;;
34783;SDS011;20998;51.388;7.032;2024-01-07T14:49:55;2.00;;;1.53;;
34783;SDS011;20998;51.388;7.032;2024-01-07T14:52:21;1.47;;;1.10;;
34783;SDS011;20998;51.388;7.032;2024-01-07T14:54:47;1.43;;;1.00;;
34783;SDS011;20998;51.388;7.032;2024-01-07T14:57:13;1.03;;;0.77;;
34783;SDS011;20998;51.388;7.032;2024-01-07T14:59:39;0.67;;;0.67;;
34783;SDS011;20998;51.388;7.032;2024-01-07T15:02:05;0.77;;;0.77;;
34783;SDS011;20998;51.388;7.032;2024-01-07T15:04:31;1.33;;;1.07;;
34783;SDS011;20998;51.388;7.032;2024-01-07T15:06:58;0.93;;;0.67;;
34783;SDS011;20998;51.388;7.032;2024-01-07T15:09:23;2.43;;;1.13;;
34783;SDS011;20998;51.388;7.032;2024-01-07T15:11:49;1.00;;;0.90;;
34783;SDS011;20998;51.388;7.032;2024-01-07T15:14:15;0.57;;;0.57;;
34783;SDS011;20998;51.388;7.032;2024-01-07T15:16:43;1.13;;;0.90;;
34783;SDS011;20998;51.388;7.032;2024-01-07T15:19:09;1.20;;;0.83;;
34783;SDS011;20998;51.388;7.032;2024-01-07T15:21:35;0.90;;;0.80;;
34783;SDS011;20998;51.388;7.032;2024-01-07T15:24:01;0.80;;;0.67;;
34783;SDS011;20998;51.388;7.032;2024-01-07T15:26:27;1.90;;;1.10;;